Time;durP1;ratioP1;P1;durP2;ratioP2;P2;SDS_P1;SDS_P2;PMS_P1;PMS_P2;Temp;Humidity;BMP_temperature;BMP_pressure;BME280_temperature;BME280_humidity;BME280_pressure;Samples;Min_cycle;Max_cycle;Signal;HPM_P1;HPM_P2
2023/10/03 00:02:20;;;;;;;1.60;0.45;;;18.10;91.90;;;;;;4992526;28;20042;-71
2023/10/03 00:04:45;;;;;;;0.00;0.00;;;18.10;91.90;;;;;;4992570;28;20121;-70
2023/10/03 00:07:11;;;;;;;0.30;0.30;;;18.20;92.00;;;;;;5005578;28;20184;-70
2023/10/03 00:09:37;;;;;;;0.00;0.00;;;18.10;92.00;;;;;;4998224;28;20059;-70
2023/10/03 00:12:02;;;;;;;0.00;0.00;;;18.20;91.90;;;;;;4995930;28;20058;-70
2023/10/03 00:14:28;;;;;;;0.00;0.00;;;18.10;91.80;;;;;;4991931;28;20062;-70
2023/10/03 00:16:54;;;;;;;11.15;1.75;;;18.10;91.80;;;;;;4986707;28;20050;-70
2023/10/03 00:19:20;;;;;;;0.32;0.30;;;18.10;91.90;;;;;;4997699;28;20057;-70
2023/10/03 00:21:46;;;;;;;0.00;0.00;;;18.10;91.80;;;;;;4983621;28;20041;-70
2023/10/03 00:24:12;;;;;;;0.05;0.05;;;18.10;91.70;;;;;;5010356;28;20081;-70
2023/10/03 00:26:39;;;;;;;3.10;1.65;;;18.10;91.90;;;;;;5009438;28;20123;-70
2023/10/03 00:29:09;;;;;;;0.43;0.43;;;18.10;91.80;;;;;;5010102;28;20510;-70
2023/10/03 00:31:35;;;;;;;0.17;0.17;;;18.10;91.70;;;;;;5009874;28;20069;-71
2023/10/03 00:34:01;;;;;;;0.10;0.10;;;18.10;91.80;;;;;;5010136;28;20564;-70
2023/10/03 00:36:27;;;;;;;0.00;0.00;;;18.10;91.80;;;;;;5010144;28;20068;-70
2023/10/03 00:38:53;;;;;;;0.00;0.00;;;18.10;91.50;;;;;;5010057;28;20048;-70
2023/10/03 00:41:19;;;;;;;0.00;0.00;;;18.00;91.40;;;;;;5009630;28;20046;-70
2023/10/03 00:44:00;;;;;;;0.22;0.22;;;18.10;91.40;;;;;;5010129;28;20088;-70
2023/10/03 00:46:27;;;;;;;;;;;18.10;91.20;;;;;;5010994;28;20045;-70
2023/10/03 00:48:53;;;;;;;0.00;0.00;;;18.10;91.30;;;;;;5009006;28;19980;-71
2023/10/03 00:51:20;;;;;;;0.40;0.40;;;18.10;91.50;;;;;;5006955;28;20493;-71
2023/10/03 00:53:47;;;;;;;0.00;0.00;;;18.00;91.40;;;;;;5010113;28;20038;-71
2023/10/03 00:56:14;;;;;;;0.10;0.10;;;18.10;91.40;;;;;;5010335;28;20057;-71
2023/10/03 00:58:41;;;;;;;0.28;0.28;;;18.00;91.40;;;;;;5009637;28;20041;-71
2023/10/03 01:01:09;;;;;;;0.10;0.10;;;18.00;91.30;;;;;;5009207;28;20167;-71
2023/10/03 01:03:38;;;;;;;1.00;0.82;;;18.00;91.20;;;;;;5010000;28;20060;-70
2023/10/03 01:06:11;;;;;;;0.28;0.28;;;18.00;91.10;;;;;;5010007;28;20058;-71
2023/10/03 01:08:39;;;;;;;0.25;0.25;;;18.00;91.10;;;;;;5009529;28;20064;-71
2023/10/03 01:11:07;;;;;;;0.03;0.03;;;18.00;91.00;;;;;;5005942;28;20053;-71
2023/10/03 01:13:34;;;;;;;0.95;0.82;;;18.00;91.00;;;;;;5009631;28;20037;-71
2023/10/03 01:16:00;;;;;;;9.02;1.65;;;18.00;90.90;;;;;;5006004;28;20061;-71
2023/10/03 01:18:28;;;;;;;0.52;0.52;;;18.00;90.90;;;;;;5009043;28;20131;-71
2023/10/03 01:21:00;;;;;;;1.33;1.15;;;18.00;90.80;;;;;;5008745;28;20038;-71
2023/10/03 01:23:31;;;;;;;0.15;0.15;;;18.00;90.70;;;;;;5009050;28;20423;-71
2023/10/03 01:25:57;;;;;;;0.10;0.10;;;18.00;90.70;;;;;;5009008;28;20044;-70
2023/10/03 01:28:22;;;;;;;0.20;0.20;;;18.00;90.60;;;;;;5009433;28;20045;-70
2023/10/03 01:30:48;;;;;;;0.08;0.08;;;18.00;90.80;;;;;;5007451;28;20049;-70
2023/10/03 01:33:13;;;;;;;0.40;0.40;;;18.00;90.70;;;;;;5005738;28;20514;-70
2023/10/03 01:35:39;;;;;;;0.25;0.25;;;18.00;90.70;;;;;;5009137;28;20103;-70
2023/10/03 01:38:05;;;;;;;0.50;0.50;;;18.00;90.60;;;;;;4991522;28;20529;-70
2023/10/03 01:40:31;;;;;;;0.65;0.65;;;18.10;90.50;;;;;;5008689;28;20042;-69
2023/10/03 01:42:57;;;;;;;0.10;0.10;;;18.00;90.40;;;;;;5007379;28;20042;-71
2023/10/03 01:45:25;;;;;;;0.30;0.30;;;18.00;90.30;;;;;;5008927;28;20445;-71
2023/10/03 01:47:51;;;;;;;0.38;0.38;;;18.10;90.30;;;;;;5009076;28;20140;-71
2023/10/03 01:50:19;;;;;;;1.65;1.55;;;18.10;90.20;;;;;;5008057;28;20998;-71
2023/10/03 01:52:46;;;;;;;0.10;0.10;;;18.00;90.10;;;;;;5008731;28;20124;-71
2023/10/03 01:55:13;;;;;;;0.32;0.32;;;18.10;90.00;;;;;;5005140;28;20046;-71
2023/10/03 01:57:40;;;;;;;0.20;0.20;;;18.10;90.00;;;;;;5008935;28;20038;-70
2023/10/03 02:00:20;;;;;;;0.75;0.75;;;18.10;89.90;;;;;;5008283;28;20046;-70
2023/10/03 02:02:46;;;;;;;0.30;0.30;;;18.00;89.80;;;;;;5007752;28;20039;-71
2023/10/03 02:05:14;;;;;;;2.65;0.85;;;18.10;89.70;;;;;;5008396;28;20044;-71
2023/10/03 02:07:39;;;;;;;0.10;0.10;;;18.00;89.70;;;;;;5007787;28;20046;-71
2023/10/03 02:10:05;;;;;;;3.08;1.45;;;18.00;89.60;;;;;;5008256;28;20490;-70
2023/10/03 02:12:31;;;;;;;0.28;0.28;;;18.00;89.60;;;;;;5007991;28;20152;-71
2023/10/03 02:14:57;;;;;;;0.00;0.00;;;18.00;89.50;;;;;;5007236;28;20096;-71
2023/10/03 02:17:24;;;;;;;1.75;0.50;;;17.90;89.50;;;;;;5008398;28;20053;-71
2023/10/03 02:19:49;;;;;;;0.75;0.75;;;18.00;89.60;;;;;;5007929;28;20045;-71
2023/10/03 02:22:16;;;;;;;0.15;0.15;;;17.90;89.50;;;;;;5008383;28;20045;-70
2023/10/03 02:24:44;;;;;;;0.20;0.20;;;17.90;89.50;;;;;;5008724;28;20054;-70
2023/10/03 02:27:11;;;;;;;0.80;0.80;;;18.00;89.30;;;;;;4990491;28;20621;-70
2023/10/03 02:29:38;;;;;;;0.38;0.38;;;18.00;89.20;;;;;;5008360;28;20053;-70
2023/10/03 02:32:05;;;;;;;0.50;0.50;;;18.00;89.10;;;;;;5007517;28;20041;-70
2023/10/03 02:34:33;;;;;;;0.10;0.10;;;18.00;89.20;;;;;;5007411;28;20057;-70
2023/10/03 02:36:59;;;;;;;0.77;0.77;;;18.00;89.10;;;;;;5006849;28;20053;-70
2023/10/03 02:39:26;;;;;;;0.00;0.00;;;18.00;89.00;;;;;;5007246;28;20037;-70
2023/10/03 02:41:52;;;;;;;0.03;0.03;;;18.00;89.00;;;;;;5008425;28;20046;-70
2023/10/03 02:44:17;;;;;;;0.57;0.57;;;18.00;88.90;;;;;;5007759;28;20053;-70
2023/10/03 02:46:44;;;;;;;0.90;0.85;;;18.00;89.00;;;;;;5003794;28;20487;-70
2023/10/03 02:49:10;;;;;;;1.45;1.35;;;18.00;88.90;;;;;;5008307;28;20052;-70
2023/10/03 02:51:36;;;;;;;0.57;0.20;;;18.00;88.90;;;;;;5003867;28;20049;-70
2023/10/03 02:54:02;;;;;;;0.17;0.17;;;18.00;88.90;;;;;;5007124;28;20049;-70
2023/10/03 02:56:27;;;;;;;0.00;0.00;;;18.00;88.80;;;;;;5006733;28;20033;-70
2023/10/03 02:58:53;;;;;;;0.30;0.30;;;18.00;88.80;;;;;;5007871;28;20044;-70
2023/10/03 03:01:21;;;;;;;0.10;0.10;;;18.00;88.70;;;;;;4988787;28;20068;-70
2023/10/03 03:03:48;;;;;;;0.00;0.00;;;18.00;88.70;;;;;;5006509;28;20184;-70
2023/10/03 03:06:14;;;;;;;0.52;0.52;;;18.00;88.70;;;;;;5006587;28;20517;-70
2023/10/03 03:08:40;;;;;;;0.10;0.10;;;18.00;88.60;;;;;;5008039;28;20050;-70
2023/10/03 03:11:06;;;;;;;0.32;0.32;;;18.00;88.60;;;;;;5007809;28;20050;-70
2023/10/03 03:13:33;;;;;;;3.15;1.85;;;18.10;88.70;;;;;;5007518;28;20038;-70
2023/10/03 03:16:00;;;;;;;0.30;0.30;;;18.00;88.50;;;;;;5007696;28;20042;-70
2023/10/03 03:18:40;;;;;;;0.73;0.40;;;18.00;88.60;;;;;;5005861;28;20038;-70
2023/10/03 03:21:13;;;;;;;0.75;0.75;;;18.10;88.60;;;;;;5004823;28;20072;-70
2023/10/03 03:23:42;;;;;;;2.03;1.20;;;18.00;88.60;;;;;;5004645;28;20128;-70
2023/10/03 03:26:17;;;;;;;0.30;0.30;;;18.00;88.60;;;;;;5006749;28;20054;-70
2023/10/03 03:28:44;;;;;;;0.80;0.70;;;18.00;88.60;;;;;;5007737;28;20538;-70
2023/10/03 03:31:20;;;;;;;1.02;0.95;;;18.00;88.50;;;;;;5007430;28;20050;-70
2023/10/03 03:33:46;;;;;;;0.85;0.85;;;18.10;88.30;;;;;;5006635;28;20038;-70
2023/10/03 03:36:17;;;;;;;0.00;0.00;;;18.20;88.10;;;;;;5006912;28;20157;-70
2023/10/03 03:38:44;;;;;;;0.22;0.20;;;18.40;87.90;;;;;;5008052;28;20049;-70
2023/10/03 03:41:10;;;;;;;0.22;0.22;;;18.40;87.60;;;;;;5008156;28;20034;-70
2023/10/03 03:43:36;;;;;;;0.30;0.30;;;18.50;86.80;;;;;;5007586;28;20049;-70
2023/10/03 03:46:02;;;;;;;0.10;0.10;;;18.60;86.30;;;;;;5004426;28;20557;-70
2023/10/03 03:48:27;;;;;;;0.47;0.47;;;18.80;86.10;;;;;;5005489;28;20037;-70
2023/10/03 03:50:53;;;;;;;0.80;0.80;;;18.90;85.80;;;;;;5006818;28;20108;-70
2023/10/03 03:53:19;;;;;;;0.03;0.03;;;19.00;85.10;;;;;;5004876;28;20045;-70
2023/10/03 03:55:45;;;;;;;0.50;0.50;;;19.00;85.40;;;;;;4989183;28;20447;-70
2023/10/03 03:58:15;;;;;;;0.20;0.20;;;19.00;85.00;;;;;;5010537;28;20041;-70
2023/10/03 04:00:47;;;;;;;0.57;0.50;;;19.00;85.10;;;;;;5005517;28;20049;-70
2023/10/03 04:03:13;;;;;;;2.40;1.50;;;19.10;85.20;;;;;;5006646;28;20050;-70
2023/10/03 04:05:40;;;;;;;6.68;3.45;;;19.00;85.40;;;;;;5009260;28;20419;-70
2023/10/03 04:08:06;;;;;;;1.98;1.02;;;19.10;85.50;;;;;;5010350;28;20070;-70
2023/10/03 04:10:36;;;;;;;0.00;0.00;;;19.10;85.70;;;;;;5007750;28;20076;-70
2023/10/03 04:13:05;;;;;;;3.92;1.75;;;19.10;85.70;;;;;;5010170;28;20081;-70
2023/10/03 04:15:31;;;;;;;0.65;0.65;;;19.10;85.80;;;;;;5009713;28;20108;-70
2023/10/03 04:17:56;;;;;;;9.02;1.73;;;19.10;85.90;;;;;;5010352;28;20053;-70
2023/10/03 04:20:30;;;;;;;4.75;1.55;;;19.10;86.20;;;;;;5008079;28;20038;-70
2023/10/03 04:22:58;;;;;;;1.65;1.55;;;19.20;86.20;;;;;;4991696;28;20554;-70
2023/10/03 04:25:24;;;;;;;0.40;0.40;;;19.20;86.40;;;;;;4998589;28;20083;-70
2023/10/03 04:27:51;;;;;;;1.45;1.35;;;19.20;86.70;;;;;;5011760;28;20045;-70
2023/10/03 04:30:19;;;;;;;0.77;0.77;;;19.20;86.80;;;;;;5011629;28;20752;-70
2023/10/03 04:32:47;;;;;;;0.47;0.47;;;19.30;87.00;;;;;;5005204;28;20548;-70
2023/10/03 04:35:13;;;;;;;1.77;1.52;;;19.40;87.30;;;;;;4996620;28;20084;-70
2023/10/03 04:37:41;;;;;;;0.10;0.10;;;19.40;87.70;;;;;;5009159;28;20041;-70
2023/10/03 04:40:13;;;;;;;3.22;1.15;;;19.40;88.30;;;;;;5010922;28;20128;-70
2023/10/03 04:42:40;;;;;;;0.13;0.13;;;19.50;88.40;;;;;;5009908;28;20055;-70
2023/10/03 04:45:10;;;;;;;0.93;0.63;;;19.60;88.30;;;;;;5011147;28;20125;-70
2023/10/03 04:47:37;;;;;;;0.10;0.10;;;19.60;88.60;;;;;;5008010;28;20050;-70
2023/10/03 04:50:03;;;;;;;0.35;0.35;;;19.50;88.50;;;;;;4991727;28;20038;-70
2023/10/03 04:52:28;;;;;;;0.63;0.63;;;19.60;89.30;;;;;;4995326;28;20038;-70
2023/10/03 04:54:54;;;;;;;0.80;0.80;;;19.50;89.40;;;;;;4994571;28;20053;-70
2023/10/03 04:57:19;;;;;;;0.00;0.00;;;19.60;89.40;;;;;;5006164;28;20458;-70
2023/10/03 04:59:45;;;;;;;0.08;0.08;;;19.60;89.30;;;;;;5011242;28;20057;-70
2023/10/03 05:02:11;;;;;;;6.47;1.48;;;19.60;89.20;;;;;;5011372;28;20095;-70
2023/10/03 05:04:37;;;;;;;0.65;0.65;;;19.60;89.20;;;;;;5009369;28;20041;-70
2023/10/03 05:07:03;;;;;;;0.32;0.32;;;19.60;89.20;;;;;;5009039;28;20046;-70
2023/10/03 05:09:32;;;;;;;0.68;0.32;;;19.60;89.20;;;;;;5010505;28;20046;-70
2023/10/03 05:11:57;;;;;;;0.10;0.10;;;19.50;89.10;;;;;;5004828;28;20403;-70
2023/10/03 05:14:23;;;;;;;1.92;1.48;;;19.50;89.20;;;;;;5005678;28;20061;-70
2023/10/03 05:16:50;;;;;;;0.65;0.65;;;19.50;89.20;;;;;;5007330;23;20066;-72
2023/10/03 05:19:21;;;;;;;0.00;0.00;;;19.40;89.30;;;;;;4983701;28;20104;-70
2023/10/03 05:21:47;;;;;;;1.80;0.73;;;19.40;89.30;;;;;;4984367;28;20066;-70
2023/10/03 05:24:15;;;;;;;1.80;0.65;;;19.40;89.20;;;;;;4992679;28;20537;-71
2023/10/03 05:26:41;;;;;;;0.28;0.28;;;19.30;89.30;;;;;;4987398;28;20523;-71
2023/10/03 05:29:07;;;;;;;0.52;0.52;;;19.30;89.60;;;;;;4988275;28;20050;-70
2023/10/03 05:31:34;;;;;;;1.17;1.08;;;19.20;89.70;;;;;;4989041;28;20054;-70
2023/10/03 05:34:00;;;;;;;0.57;0.57;;;19.20;89.80;;;;;;4989035;28;20046;-70
2023/10/03 05:36:27;;;;;;;0.38;0.38;;;19.20;89.80;;;;;;4980299;28;20058;-69
2023/10/03 05:38:52;;;;;;;0.73;0.73;;;19.10;90.00;;;;;;4980160;28;20054;-69
2023/10/03 05:41:21;;;;;;;0.13;0.13;;;19.10;90.00;;;;;;4981859;28;20046;-70
2023/10/03 05:43:48;;;;;;;0.63;0.63;;;19.00;89.80;;;;;;4980696;28;20111;-70
2023/10/03 05:46:13;;;;;;;0.03;0.03;;;19.00;89.60;;;;;;4980890;28;20054;-71
2023/10/03 05:48:39;;;;;;;0.10;0.10;;;19.00;89.50;;;;;;4978833;28;20054;-71
2023/10/03 05:51:05;;;;;;;0.35;0.35;;;19.00;89.40;;;;;;4973782;28;20058;-70
2023/10/03 05:53:31;;;;;;;0.50;0.50;;;19.00;89.30;;;;;;4980149;28;20568;-70
2023/10/03 05:55:58;;;;;;;0.82;0.82;;;19.00;89.10;;;;;;4979230;28;20073;-70
2023/10/03 05:58:24;;;;;;;1.95;1.23;;;18.90;89.20;;;;;;4992041;28;20074;-70
2023/10/03 06:00:49;;;;;;;0.10;0.10;;;19.00;88.90;;;;;;4977492;28;20133;-70
2023/10/03 06:03:15;;;;;;;1.02;1.00;;;19.00;89.00;;;;;;4981856;28;20056;-70
2023/10/03 06:05:41;;;;;;;0.75;0.75;;;18.90;89.20;;;;;;4983167;28;20069;-70
2023/10/03 06:08:12;;;;;;;0.65;0.65;;;18.90;89.40;;;;;;4980411;28;20038;-70
2023/10/03 06:10:39;;;;;;;0.00;0.00;;;18.80;89.50;;;;;;4984300;28;20068;-71
2023/10/03 06:13:10;;;;;;;0.40;0.40;;;18.80;89.70;;;;;;4980270;28;20049;-71
2023/10/03 06:15:40;;;;;;;0.00;0.00;;;18.80;89.70;;;;;;4981989;28;20116;-71
2023/10/03 06:18:05;;;;;;;0.55;0.55;;;18.90;89.50;;;;;;4980398;28;20090;-71
2023/10/03 06:20:31;;;;;;;0.00;0.00;;;19.00;89.60;;;;;;4977501;28;20082;-74
2023/10/03 06:22:57;;;;;;;0.95;0.95;;;18.90;89.80;;;;;;4979009;28;20122;-70
2023/10/03 06:25:24;;;;;;;2.13;1.38;;;18.90;90.10;;;;;;4975623;28;20054;-70
2023/10/03 06:27:49;;;;;;;1.25;0.88;;;18.90;90.20;;;;;;4969369;28;20732;-70
2023/10/03 06:30:17;;;;;;;0.70;0.70;;;18.80;89.90;;;;;;4970315;28;20061;-70
2023/10/03 06:32:44;;;;;;;0.25;0.25;;;18.80;89.70;;;;;;4970787;28;20051;-69
2023/10/03 06:35:09;;;;;;;0.00;0.00;;;18.70;90.00;;;;;;4969733;28;20800;-70
2023/10/03 06:37:37;;;;;;;1.38;1.27;;;18.60;89.70;;;;;;4984018;28;20129;-70
2023/10/03 06:40:08;;;;;;;6.68;1.35;;;18.50;89.60;;;;;;4989626;28;20085;-70
2023/10/03 06:42:35;;;;;;;0.10;0.10;;;18.40;89.50;;;;;;4989607;28;20054;-70
2023/10/03 06:45:05;;;;;;;0.05;0.05;;;18.30;89.70;;;;;;4990091;28;20093;-70
2023/10/03 06:47:33;;;;;;;0.10;0.10;;;18.20;89.50;;;;;;4989440;28;20042;-69
2023/10/03 06:49:58;;;;;;;0.00;0.00;;;18.10;89.30;;;;;;4987992;28;20046;-70
2023/10/03 06:52:25;;;;;;;0.28;0.28;;;17.90;89.50;;;;;;4970430;28;20059;-70
2023/10/03 06:54:51;;;;;;;2.17;1.38;;;17.80;89.80;;;;;;4970213;28;20070;-70
2023/10/03 06:57:16;;;;;;;0.32;0.32;;;17.70;89.90;;;;;;4970312;28;20042;-69
2023/10/03 06:59:42;;;;;;;0.13;0.13;;;17.60;90.20;;;;;;4970264;28;20129;-70
2023/10/03 07:02:08;;;;;;;0.35;0.35;;;17.60;89.80;;;;;;4970239;28;20049;-70
2023/10/03 07:04:34;;;;;;;1.02;1.02;;;17.60;89.90;;;;;;4970466;28;20079;-69
2023/10/03 07:06:59;;;;;;;0.70;0.68;;;17.50;90.00;;;;;;4970291;28;20102;-70
2023/10/03 07:09:25;;;;;;;0.00;0.00;;;17.40;90.60;;;;;;4970525;28;20093;-70
2023/10/03 07:11:52;;;;;;;0.20;0.20;;;17.30;90.60;;;;;;4970112;28;20050;-71
2023/10/03 07:14:18;;;;;;;0.00;0.00;;;17.20;90.80;;;;;;4970132;28;20047;-70
2023/10/03 07:16:48;;;;;;;0.00;0.00;;;17.10;91.10;;;;;;4982904;28;20054;-70
2023/10/03 07:19:15;;;;;;;0.52;0.52;;;17.00;91.10;;;;;;4989799;28;20043;-70
2023/10/03 07:21:41;;;;;;;0.00;0.00;;;17.00;91.30;;;;;;4989780;28;20078;-70
2023/10/03 07:24:07;;;;;;;0.00;0.00;;;17.00;91.10;;;;;;4989446;28;20046;-70
2023/10/03 07:26:33;;;;;;;0.00;0.00;;;16.90;91.30;;;;;;4989619;28;20065;-70
2023/10/03 07:29:00;;;;;;;0.80;0.80;;;16.90;91.10;;;;;;4989700;28;20046;-71
2023/10/03 07:31:27;;;;;;;0.00;0.00;;;16.90;90.90;;;;;;4989266;28;20045;-69
2023/10/03 07:33:52;;;;;;;0.00;0.00;;;16.80;91.00;;;;;;4993016;28;20105;-69
2023/10/03 07:36:18;;;;;;;0.98;0.95;;;16.80;90.80;;;;;;4993498;28;20046;-70
2023/10/03 07:38:47;;;;;;;0.10;0.10;;;16.80;91.00;;;;;;4993194;28;20085;-69
2023/10/03 07:41:15;;;;;;;0.00;0.00;;;16.70;90.60;;;;;;4993280;28;20042;-69
2023/10/03 07:43:41;;;;;;;0.00;0.00;;;16.70;90.60;;;;;;4992810;28;20049;-69
2023/10/03 07:46:07;;;;;;;0.73;0.73;;;16.60;90.80;;;;;;4993222;28;20038;-70
2023/10/03 07:48:33;;;;;;;0.00;0.00;;;16.60;90.30;;;;;;4991938;28;20484;-69
2023/10/03 07:50:58;;;;;;;0.10;0.10;;;16.60;90.20;;;;;;4992521;28;20042;-69
2023/10/03 07:53:29;;;;;;;0.00;0.00;;;16.50;90.00;;;;;;4992971;28;20113;-70
2023/10/03 07:55:56;;;;;;;0.00;0.00;;;16.40;90.20;;;;;;4992001;28;20164;-69
2023/10/03 07:58:22;;;;;;;0.00;0.00;;;16.40;90.10;;;;;;4972855;28;20285;-69
2023/10/03 08:00:49;;;;;;;0.00;0.00;;;16.50;90.40;;;;;;4973148;28;20060;-70
2023/10/03 08:03:15;;;;;;;0.00;0.00;;;16.50;90.10;;;;;;4973153;28;20054;-69
2023/10/03 08:05:41;;;;;;;0.00;0.00;;;16.50;90.20;;;;;;4973524;28;20051;-70
2023/10/03 08:08:07;;;;;;;0.03;0.03;;;16.50;89.90;;;;;;4973455;28;20403;-69
2023/10/03 08:10:33;;;;;;;0.00;0.00;;;16.50;89.50;;;;;;4986876;28;20121;-69
2023/10/03 08:12:59;;;;;;;0.00;0.00;;;16.60;89.50;;;;;;4990625;28;20161;-69
2023/10/03 08:15:31;;;;;;;0.00;0.00;;;16.50;89.10;;;;;;4972850;28;20043;-69
2023/10/03 08:17:58;;;;;;;0.00;0.00;;;16.50;88.80;;;;;;4987899;28;20062;-69
2023/10/03 08:20:24;;;;;;;0.00;0.00;;;16.50;88.80;;;;;;4973022;28;20057;-69
2023/10/03 08:22:53;;;;;;;0.00;0.00;;;16.40;88.70;;;;;;4973397;28;20114;-69
2023/10/03 08:25:23;;;;;;;0.00;0.00;;;16.20;88.80;;;;;;4991409;28;20092;-69
2023/10/03 08:27:50;;;;;;;0.25;0.17;;;16.10;89.30;;;;;;4992309;28;20046;-69
2023/10/03 08:30:27;;;;;;;0.00;0.00;;;16.00;90.00;;;;;;4992200;28;20591;-69
2023/10/03 08:33:00;;;;;;;0.00;0.00;;;15.80;90.10;;;;;;4990927;28;20061;-69
2023/10/03 08:35:37;;;;;;;0.03;0.03;;;15.90;90.40;;;;;;4991114;28;20064;-69
2023/10/03 08:38:12;;;;;;;0.00;0.00;;;16.00;90.60;;;;;;4991027;28;20053;-70
2023/10/03 08:40:42;;;;;;;0.00;0.00;;;15.90;90.60;;;;;;4991161;28;20050;-69
2023/10/03 08:43:10;;;;;;;0.00;0.00;;;15.90;90.60;;;;;;4972289;28;20051;-69
2023/10/03 08:45:52;;;;;;;0.00;0.00;;;15.80;90.10;;;;;;4972234;28;20082;-69
2023/10/03 08:48:24;;;;;;;0.00;0.00;;;15.60;89.30;;;;;;4972759;28;20130;-70
2023/10/03 08:50:58;;;;;;;0.00;0.00;;;15.60;89.10;;;;;;4972472;28;20047;-69
2023/10/03 08:53:27;;;;;;;0.00;0.00;;;15.60;89.10;;;;;;4972452;28;20039;-69
2023/10/03 08:55:58;;;;;;;0.00;0.00;;;15.60;88.80;;;;;;4976229;28;20053;-69
2023/10/03 08:58:26;;;;;;;0.00;0.00;;;15.60;88.90;;;;;;4992067;28;20058;-69
2023/10/03 09:00:58;;;;;;;0.00;0.00;;;15.50;89.20;;;;;;4991733;28;20074;-69
2023/10/03 09:03:47;;;;;;;1.15;0.85;;;15.60;89.10;;;;;;4991771;28;20066;-69
2023/10/03 09:06:19;;;;;;;0.00;0.00;;;15.60;88.80;;;;;;4991129;28;20410;-69
2023/10/03 09:09:09;;;;;;;0.00;0.00;;;15.60;89.10;;;;;;4990334;28;20630;-69
2023/10/03 09:11:38;;;;;;;0.00;0.00;;;15.60;88.90;;;;;;4979177;28;20050;-68
2023/10/03 09:14:09;;;;;;;0.00;0.00;;;15.60;88.70;;;;;;4971723;28;20511;-69
2023/10/03 09:16:40;;;;;;;0.00;0.00;;;15.60;87.70;;;;;;4971400;28;20055;-70
2023/10/03 09:19:09;;;;;;;0.00;0.00;;;15.60;87.00;;;;;;4971730;28;20089;-69
2023/10/03 09:21:35;;;;;;;6.35;0.55;;;15.60;86.50;;;;;;4971864;28;20102;-69
2023/10/03 09:24:09;;;;;;;0.00;0.00;;;15.50;86.90;;;;;;4971809;28;20058;-69
2023/10/03 09:26:45;;;;;;;4.18;0.88;;;15.50;87.00;;;;;;4971927;28;20406;-70
2023/10/03 09:29:19;;;;;;;0.00;0.00;;;15.50;86.60;;;;;;4971690;28;20126;-69
2023/10/03 09:31:46;;;;;;;0.00;0.00;;;15.50;86.50;;;;;;4971891;28;20050;-70
2023/10/03 09:34:14;;;;;;;0.00;0.00;;;15.50;86.40;;;;;;4986807;28;20111;-70
2023/10/03 09:36:40;;;;;;;0.03;0.03;;;15.50;86.40;;;;;;4971576;28;20054;-70
2023/10/03 09:39:20;;;;;;;0.10;0.10;;;15.50;86.20;;;;;;4971414;28;20042;-69
2023/10/03 09:41:51;;;;;;;0.00;0.00;;;15.60;85.90;;;;;;4988707;28;20081;-70
2023/10/03 09:44:19;;;;;;;0.00;0.00;;;15.60;85.80;;;;;;4990678;28;20042;-70
2023/10/03 09:46:52;;;;;;;0.00;0.00;;;15.60;86.10;;;;;;4990839;28;20085;-70
2023/10/03 09:49:17;;;;;;;0.00;0.00;;;15.60;85.70;;;;;;4989875;28;20054;-70
2023/10/03 09:51:51;;;;;;;0.00;0.00;;;15.60;85.90;;;;;;4990657;28;20048;-69
2023/10/03 09:54:30;;;;;;;0.00;0.00;;;15.70;85.50;;;;;;4991454;28;20046;-68
2023/10/03 09:56:57;;;;;;;0.52;0.52;;;15.70;85.80;;;;;;4989780;28;20090;-69
2023/10/03 09:59:27;;;;;;;0.08;0.08;;;15.60;86.80;;;;;;4990001;28;20100;-68
2023/10/03 10:01:56;;;;;;;0.00;0.00;;;15.60;87.20;;;;;;4971850;28;20813;-68
2023/10/03 10:04:25;;;;;;;4.38;1.67;;;15.60;87.20;;;;;;4971954;28;20125;-69
2023/10/03 10:07:01;;;;;;;0.20;0.20;;;15.60;87.30;;;;;;4972159;28;20038;-68
2023/10/03 10:09:35;;;;;;;0.00;0.00;;;15.60;87.40;;;;;;4972116;28;20074;-69
2023/10/03 10:12:19;;;;;;;0.20;0.20;;;15.60;87.10;;;;;;4983436;28;20077;-68
2023/10/03 10:15:01;;;;;;;0.47;0.47;;;15.60;86.80;;;;;;4991007;28;20042;-69
2023/10/03 10:17:51;;;;;;;0.00;0.00;;;15.60;86.20;;;;;;4990947;28;20482;-69
2023/10/03 10:20:37;;;;;;;0.00;0.00;;;15.70;84.80;;;;;;4980932;28;20043;-68
2023/10/03 10:23:04;;;;;;;0.00;0.00;;;15.60;84.40;;;;;;4971223;28;20043;-69
2023/10/03 10:25:49;;;;;;;0.00;0.00;;;15.60;84.40;;;;;;4970657;28;20059;-69
2023/10/03 10:28:26;;;;;;;0.40;0.40;;;15.50;83.80;;;;;;4985731;28;20038;-68
2023/10/03 10:31:11;;;;;;;0.00;0.00;;;15.40;83.90;;;;;;4970780;28;20038;-69
2023/10/03 10:33:37;;;;;;;0.60;0.30;;;15.30;84.50;;;;;;4970741;28;20047;-69
2023/10/03 10:36:03;;;;;;;0.00;0.00;;;15.30;84.00;;;;;;4970384;28;20047;-70
2023/10/03 10:38:32;;;;;;;0.00;0.00;;;15.20;84.00;;;;;;4970752;28;20089;-68
2023/10/03 10:41:31;;;;;;;0.00;0.00;;;15.20;83.80;;;;;;4970817;28;20062;-69
2023/10/03 10:44:13;;;;;;;0.00;0.00;;;15.30;83.80;;;;;;4970239;28;20058;-70
2023/10/03 10:46:44;;;;;;;0.00;0.00;;;15.30;83.50;;;;;;4970578;28;20046;-69
2023/10/03 10:49:35;;;;;;;0.32;0.32;;;15.20;83.80;;;;;;4985459;28;20046;-68
2023/10/03 10:52:06;;;;;;;0.00;0.00;;;15.20;84.10;;;;;;4988891;28;20101;-69
2023/10/03 10:54:42;;;;;;;;;;;15.10;84.60;;;;;;4973063;28;20054;-68
2023/10/03 10:57:14;;;;;;;0.00;0.00;;;15.00;84.90;;;;;;4989900;28;19932;-69
2023/10/03 10:59:40;;;;;;;;;;;15.00;85.20;;;;;;4990307;28;20050;-69
2023/10/03 11:02:23;;;;;;;0.00;0.00;;;15.00;85.00;;;;;;4990049;28;19941;-69
2023/10/03 11:04:57;;;;;;;0.30;0.30;;;14.90;85.20;;;;;;4986855;28;20411;-68
2023/10/03 11:07:28;;;;;;;0.35;0.35;;;14.90;85.40;;;;;;4974250;28;20042;-68
2023/10/03 11:10:06;;;;;;;0.10;0.10;;;15.00;85.10;;;;;;4974279;28;20154;-69
2023/10/03 11:12:31;;;;;;;0.00;0.00;;;15.00;85.20;;;;;;4974458;28;20117;-69
2023/10/03 11:14:57;;;;;;;0.00;0.00;;;15.00;85.30;;;;;;4974092;28;20480;-69
2023/10/03 11:17:25;;;;;;;0.00;0.00;;;15.00;85.20;;;;;;4973781;28;20121;-69
2023/10/03 11:19:52;;;;;;;0.50;0.17;;;15.00;85.30;;;;;;4975226;28;20046;-70
2023/10/03 11:22:18;;;;;;;0.00;0.00;;;15.10;85.30;;;;;;4974211;28;20531;-69
2023/10/03 11:24:45;;;;;;;0.30;0.30;;;15.10;85.40;;;;;;4974382;28;20082;-69
2023/10/03 11:27:23;;;;;;;0.00;0.00;;;15.10;85.20;;;;;;4974489;28;20062;-69
2023/10/03 11:29:49;;;;;;;0.00;0.00;;;15.20;84.70;;;;;;4974228;28;20118;-69
2023/10/03 11:32:22;;;;;;;0.00;0.00;;;15.30;84.80;;;;;;4973731;28;20503;-69
2023/10/03 11:34:49;;;;;;;1.05;1.02;;;15.30;81.70;;;;;;4980370;28;20093;-69
2023/10/03 11:37:41;;;;;;;0.47;0.47;;;15.40;78.80;;;;;;4993366;28;20133;-69
2023/10/03 11:40:11;;;;;;;0.00;0.00;;;15.50;78.70;;;;;;4993586;28;20165;-69
2023/10/03 11:43:04;;;;;;;0.30;0.30;;;15.60;78.30;;;;;;4991985;28;20422;-69
2023/10/03 11:45:30;;;;;;;0.10;0.10;;;15.60;78.20;;;;;;4977090;28;20637;-68
2023/10/03 11:48:07;;;;;;;0.00;0.00;;;15.70;78.70;;;;;;4973754;28;20046;-68
2023/10/03 11:50:40;;;;;;;0.00;0.00;;;15.60;78.50;;;;;;4989217;28;20070;-68
2023/10/03 11:53:08;;;;;;;0.00;0.00;;;15.70;78.60;;;;;;4973604;28;20062;-69
2023/10/03 11:55:36;;;;;;;0.00;0.00;;;15.70;78.60;;;;;;4973486;28;20089;-69
2023/10/03 11:58:03;;;;;;;0.00;0.00;;;15.70;79.30;;;;;;4973368;28;20120;-69
2023/10/03 12:00:29;;;;;;;0.00;0.00;;;15.70;80.20;;;;;;4973524;28;20042;-69
2023/10/03 12:02:55;;;;;;;0.00;0.00;;;15.70;80.60;;;;;;4973315;28;20046;-68
2023/10/03 12:05:22;;;;;;;0.00;0.00;;;15.60;81.80;;;;;;4988510;28;20042;-69
2023/10/03 12:07:49;;;;;;;0.00;0.00;;;15.60;82.20;;;;;;4993066;28;20053;-69
2023/10/03 12:10:16;;;;;;;0.10;0.10;;;15.50;83.10;;;;;;4992432;28;20046;-69
2023/10/03 12:12:42;;;;;;;0.47;0.47;;;15.50;83.10;;;;;;4992589;28;20046;-69
2023/10/03 12:15:13;;;;;;;0.00;0.00;;;15.40;83.10;;;;;;4992522;28;20053;-69
2023/10/03 12:17:40;;;;;;;0.00;0.00;;;15.30;82.60;;;;;;4991673;28;20407;-69
2023/10/03 12:20:11;;;;;;;0.00;0.00;;;15.40;82.70;;;;;;4990591;28;20496;-69
2023/10/03 12:22:44;;;;;;;0.00;0.00;;;15.30;83.00;;;;;;4992729;28;20039;-70
2023/10/03 12:25:15;;;;;;;0.00;0.00;;;15.40;82.70;;;;;;4992462;28;20042;-69
2023/10/03 12:27:42;;;;;;;0.00;0.00;;;15.30;82.70;;;;;;4992090;28;20046;-69
2023/10/03 12:30:10;;;;;;;0.10;0.10;;;15.30;83.00;;;;;;4992485;28;20054;-68
2023/10/03 12:32:44;;;;;;;0.17;0.17;;;15.40;82.90;;;;;;4992287;28;20042;-68
2023/10/03 12:35:10;;;;;;;0.00;0.00;;;15.50;83.10;;;;;;4974243;28;20555;-69
2023/10/03 12:37:37;;;;;;;0.00;0.00;;;15.50;82.60;;;;;;4972987;28;20047;-70
2023/10/03 12:40:04;;;;;;;0.55;0.55;;;15.60;82.90;;;;;;4972465;28;20049;-70
2023/10/03 12:42:31;;;;;;;0.95;0.90;;;15.70;82.30;;;;;;4972885;28;20050;-71
2023/10/03 12:45:00;;;;;;;0.00;0.00;;;15.80;81.90;;;;;;4971990;28;20093;-69
2023/10/03 12:47:30;;;;;;;2.22;1.98;;;15.90;80.00;;;;;;4972772;28;20050;-69
2023/10/03 12:49:57;;;;;;;0.32;0.32;;;16.00;79.00;;;;;;5005622;28;20049;-69
2023/10/03 12:52:23;;;;;;;0.00;0.00;;;16.10;78.60;;;;;;4992361;28;20443;-69
2023/10/03 12:54:49;;;;;;;0.00;0.00;;;16.10;78.20;;;;;;4991550;28;20042;-69
2023/10/03 12:57:14;;;;;;;0.20;0.20;;;16.20;76.90;;;;;;4991917;28;20057;-69